createdAt,value
2023-04-05T00:00:58.904Z,0.33
2023-04-05T00:02:01.961Z,0.57
2023-04-05T00:03:05.024Z,0.00
2023-04-05T00:04:08.312Z,0.33
2023-04-05T00:05:11.535Z,0.57
2023-04-05T00:06:14.713Z,0.33
2023-04-05T00:07:17.701Z,1.00
2023-04-05T00:08:20.985Z,0.67
2023-04-05T00:09:24.162Z,1.29
2023-04-05T00:10:27.338Z,1.57
2023-04-05T00:11:30.623Z,1.00
2023-04-05T00:12:33.910Z,1.00
2023-04-05T00:13:37.199Z,1.00
2023-04-05T00:14:40.171Z,1.29
2023-04-05T00:15:43.352Z,1.00
2023-04-05T00:16:46.716Z,1.00
2023-04-05T00:17:49.706Z,1.43
2023-04-05T00:18:52.673Z,1.33
2023-04-05T00:19:55.666Z,2.00
2023-04-05T00:20:58.753Z,2.57
2023-04-05T00:22:01.843Z,2.00
2023-04-05T00:23:05.018Z,2.50
2023-04-05T00:24:08.131Z,2.00
2023-04-05T00:25:11.279Z,2.00
2023-04-05T00:26:14.304Z,1.71
2023-04-05T00:27:17.380Z,1.57
2023-04-05T00:28:20.391Z,1.00
2023-04-05T00:29:23.486Z,1.33
2023-04-05T00:30:26.670Z,2.29
2023-04-05T00:31:29.803Z,1.57
2023-04-05T00:32:32.948Z,1.43
2023-04-05T00:33:35.901Z,1.57
2023-04-05T00:34:38.900Z,1.67
2023-04-05T00:35:42.117Z,2.00
2023-04-05T00:36:45.379Z,2.00
2023-04-05T00:37:48.433Z,1.67
2023-04-05T00:38:51.514Z,1.43
2023-04-05T00:39:54.452Z,1.57
2023-04-05T00:40:57.466Z,1.33
2023-04-05T00:42:00.656Z,2.33
2023-04-05T00:43:03.724Z,2.14
2023-04-05T00:44:07.012Z,1.43
2023-04-05T00:45:10.292Z,1.57
2023-04-05T00:46:13.487Z,1.86
2023-04-05T00:47:16.657Z,2.57
2023-04-05T00:48:19.874Z,1.14
2023-04-05T00:49:23.022Z,1.14
2023-04-05T00:50:26.411Z,1.43
2023-04-05T00:51:29.489Z,1.57
2023-04-05T00:52:32.668Z,1.00
2023-04-05T00:53:36.165Z,1.00
2023-04-05T00:54:39.150Z,1.00
2023-04-05T00:55:42.911Z,1.00
2023-04-05T00:56:46.525Z,1.00
2023-04-05T00:57:49.691Z,0.50
2023-04-05T00:58:53.041Z,0.43
2023-04-05T00:59:56.380Z,0.57
2023-04-05T01:00:59.785Z,0.29
2023-04-05T01:02:02.760Z,0.43
2023-04-05T01:03:05.982Z,1.00
2023-04-05T01:04:09.046Z,1.00
2023-04-05T01:05:12.278Z,1.00
2023-04-05T01:07:18.337Z,1.33
2023-04-05T01:08:21.418Z,1.67
2023-04-05T01:09:24.395Z,1.00
2023-04-05T01:10:27.472Z,0.57
2023-04-05T01:11:30.555Z,0.33
2023-04-05T01:12:33.653Z,0.67
2023-04-05T01:13:36.775Z,0.83
2023-04-05T01:14:39.893Z,1.43
2023-04-05T01:15:43.126Z,1.00
2023-04-05T01:16:46.361Z,1.00
2023-04-05T01:17:49.648Z,0.43
2023-04-05T01:18:53.042Z,0.71
2023-04-05T01:19:56.416Z,1.17
2023-04-05T01:20:59.669Z,1.57
2023-04-05T01:22:03.918Z,1.00
2023-04-05T01:23:06.996Z,1.00
2023-04-05T01:24:10.003Z,1.00
2023-04-05T01:25:13.246Z,0.71
2023-04-05T01:26:16.412Z,0.57
2023-04-05T01:27:19.611Z,2.00
2023-04-05T01:28:23.009Z,1.86
2023-04-05T01:29:26.377Z,2.00
2023-04-05T01:30:29.662Z,2.00
2023-04-05T01:31:32.775Z,1.71
2023-04-05T01:32:35.924Z,1.43
2023-04-05T01:33:39.210Z,1.33
2023-04-05T01:34:42.393Z,1.57
2023-04-05T01:35:45.582Z,0.57
2023-04-05T01:36:48.563Z,0.71
2023-04-05T01:37:51.497Z,1.00
2023-04-05T01:38:54.710Z,1.43
2023-04-05T01:39:57.993Z,1.00
2023-04-05T01:41:01.380Z,0.29
2023-04-05T01:42:04.566Z,0.71
2023-04-05T01:43:07.838Z,0.00
2023-04-05T01:44:11.048Z,1.43
2023-04-05T01:45:14.525Z,1.14
2023-04-05T01:46:17.842Z,0.43
2023-04-05T01:47:20.974Z,0.43
2023-04-05T01:48:24.180Z,0.00
2023-04-05T01:49:27.376Z,0.43
2023-04-05T01:50:30.536Z,0.57
2023-04-05T01:51:33.728Z,1.00
2023-04-05T01:52:36.914Z,0.43
2023-04-05T01:53:40.183Z,0.00
2023-04-05T01:54:43.569Z,0.00
2023-04-05T01:55:47.160Z,0.00
2023-04-05T01:56:50.548Z,0.00
2023-04-05T01:57:53.827Z,0.00
2023-04-05T01:58:56.990Z,0.43
2023-04-05T02:00:00.202Z,0.86
2023-04-05T02:01:03.493Z,0.00
2023-04-05T02:02:06.868Z,0.14
2023-04-05T02:03:10.164Z,0.00
2023-04-05T02:04:13.458Z,0.00
2023-04-05T02:05:16.826Z,0.00
2023-04-05T02:06:19.904Z,0.00
2023-04-05T02:07:23.099Z,0.00
2023-04-05T02:08:26.161Z,0.00
2023-04-05T02:09:29.276Z,0.00
2023-04-05T02:10:32.523Z,0.00
2023-04-05T02:11:35.838Z,0.43
2023-04-05T02:12:38.887Z,0.29
2023-04-05T02:13:42.095Z,0.00
2023-04-05T02:14:45.353Z,0.00
2023-04-05T02:15:48.448Z,0.43
2023-04-05T02:16:51.513Z,0.57
2023-04-05T02:17:54.664Z,0.00
2023-04-05T02:18:57.989Z,0.00
2023-04-05T02:20:01.066Z,0.00
2023-04-05T02:21:04.452Z,0.33
2023-04-05T02:22:07.938Z,0.00
2023-04-05T02:23:11.182Z,0.00
2023-04-05T02:24:14.361Z,0.00
2023-04-05T02:25:17.481Z,0.00
2023-04-05T02:26:20.772Z,0.00
2023-04-05T02:27:23.948Z,0.00
2023-04-05T02:28:27.233Z,1.00
2023-04-05T02:29:30.414Z,0.57
2023-04-05T02:30:33.806Z,0.00
2023-04-05T02:31:37.095Z,0.00
2023-04-05T02:32:40.620Z,0.00
2023-04-05T02:33:43.861Z,0.00
2023-04-05T02:34:47.140Z,0.00
2023-04-05T02:35:50.468Z,0.00
2023-04-05T02:36:53.926Z,0.00
2023-04-05T02:37:57.404Z,0.29
2023-04-05T02:39:00.586Z,0.00
2023-04-05T02:40:03.769Z,0.00
2023-04-05T02:41:07.049Z,0.00
2023-04-05T02:42:10.232Z,0.00
2023-04-05T02:43:13.625Z,0.00
2023-04-05T02:44:17.079Z,0.00
2023-04-05T02:45:20.296Z,0.00
2023-04-05T02:46:23.579Z,0.00
2023-04-05T02:47:27.035Z,0.00
2023-04-05T02:48:30.266Z,0.00
2023-04-05T02:49:33.635Z,0.00
2023-04-05T02:50:36.916Z,0.00
2023-04-05T02:51:40.408Z,0.00
2023-04-05T02:52:43.708Z,0.00
2023-04-05T02:53:46.873Z,0.00
2023-04-05T02:54:50.256Z,0.33
2023-04-05T02:55:53.645Z,0.57
2023-04-05T02:56:56.928Z,0.00
2023-04-05T02:58:00.112Z,0.00
2023-04-05T02:59:03.572Z,0.00
2023-04-05T03:00:06.789Z,0.43
2023-04-05T03:01:10.293Z,0.57
2023-04-05T03:02:13.249Z,0.00
2023-04-05T03:03:16.803Z,0.00
2023-04-05T03:04:20.221Z,0.00
2023-04-05T03:05:23.417Z,0.00
2023-04-05T03:06:26.798Z,0.00
2023-04-05T03:07:29.983Z,0.00
2023-04-05T03:08:33.268Z,0.00
2023-04-05T03:09:36.541Z,0.43
2023-04-05T03:10:39.832Z,0.57
2023-04-05T03:11:43.013Z,0.43
2023-04-05T03:12:46.313Z,0.57
2023-04-05T03:13:49.495Z,0.00
2023-04-05T03:14:55.829Z,0.00
2023-04-05T03:15:59.014Z,0.00
2023-04-05T03:17:02.836Z,0.00
2023-04-05T03:18:06.095Z,0.00
2023-04-05T03:19:09.379Z,0.00
2023-04-05T03:20:12.788Z,0.14
2023-04-05T03:21:16.903Z,0.00
2023-04-05T03:22:20.111Z,0.33
2023-04-05T03:23:26.097Z,0.17
2023-04-05T03:24:29.417Z,0.62
2023-04-05T03:25:32.574Z,0.00
2023-04-05T03:26:35.522Z,0.43
2023-04-05T03:27:38.553Z,0.57
2023-04-05T03:28:41.702Z,0.00
2023-04-05T03:29:44.783Z,0.00
2023-04-05T03:30:47.877Z,0.00
2023-04-05T03:31:51.153Z,0.00
2023-04-05T03:32:54.365Z,0.00
2023-04-05T03:33:57.617Z,0.00
2023-04-05T03:35:00.792Z,0.00
2023-04-05T03:36:03.826Z,0.00
2023-04-05T03:37:06.822Z,0.00
2023-04-05T03:38:09.928Z,0.00
2023-04-05T03:39:13.112Z,0.43
2023-04-05T03:40:16.324Z,1.14
2023-04-05T03:41:19.374Z,0.43
2023-04-05T03:42:22.416Z,0.43
2023-04-05T03:43:26.729Z,1.00
2023-04-05T03:44:29.748Z,0.88
2023-04-05T03:45:32.815Z,0.43
2023-04-05T03:46:36.025Z,1.00
2023-04-05T03:47:39.012Z,0.86
2023-04-05T03:48:42.153Z,1.71
2023-04-05T03:49:45.276Z,2.57
2023-04-05T03:50:48.417Z,1.33
2023-04-05T03:51:51.519Z,1.00
2023-04-05T03:52:54.491Z,0.17
2023-04-05T03:53:57.665Z,0.33
2023-04-05T03:55:00.609Z,1.00
2023-04-05T03:56:03.591Z,0.00
2023-04-05T03:57:06.708Z,0.00
2023-04-05T03:58:09.848Z,0.00
2023-04-05T03:59:14.068Z,0.33
2023-04-05T04:00:17.155Z,0.50
2023-04-05T04:01:20.259Z,0.33
2023-04-05T04:02:23.247Z,1.00
2023-04-05T04:03:27.431Z,0.57
2023-04-05T04:04:30.410Z,0.00
2023-04-05T04:05:33.351Z,0.00
2023-04-05T04:06:36.520Z,0.00
2023-04-05T04:07:39.540Z,0.00
2023-04-05T04:08:42.477Z,0.00
2023-04-05T04:09:45.485Z,0.00
2023-04-05T04:10:48.450Z,0.00
2023-04-05T04:11:51.345Z,0.00
2023-04-05T04:12:54.368Z,0.00
2023-04-05T04:13:57.391Z,0.00
2023-04-05T04:15:00.681Z,0.00
2023-04-05T04:16:03.688Z,0.14
2023-04-05T04:17:06.835Z,0.00
2023-04-05T04:18:09.911Z,0.00
2023-04-05T04:19:13.101Z,0.00
2023-04-05T04:20:16.085Z,0.00
2023-04-05T04:21:18.953Z,0.00
2023-04-05T04:22:22.033Z,0.00
2023-04-05T04:23:25.309Z,0.00
2023-04-05T04:24:28.289Z,0.00
2023-04-05T04:25:31.375Z,0.00
2023-04-05T04:26:34.346Z,0.43
2023-04-05T04:27:37.422Z,0.00
2023-04-05T04:28:40.273Z,0.00
2023-04-05T04:29:43.488Z,0.00
2023-04-05T04:30:46.578Z,0.00
2023-04-05T04:31:49.679Z,0.00
2023-04-05T04:32:52.980Z,0.00
2023-04-05T04:33:56.105Z,0.00
2023-04-05T04:34:59.077Z,0.00
2023-04-05T04:36:02.183Z,0.00
2023-04-05T04:37:05.350Z,0.00
2023-04-05T04:38:08.500Z,0.17
2023-04-05T04:39:11.620Z,0.00
2023-04-05T04:40:14.700Z,0.00
2023-04-05T04:41:17.770Z,0.00
2023-04-05T04:42:20.853Z,0.00
2023-04-05T04:43:23.931Z,0.00
2023-04-05T04:44:27.013Z,0.00
2023-04-05T04:45:30.029Z,0.00
2023-04-05T04:46:33.058Z,0.00
2023-04-05T04:47:36.125Z,0.00
2023-04-05T04:48:39.223Z,0.00
2023-04-05T04:49:42.300Z,0.33
2023-04-05T04:50:46.314Z,0.67
2023-04-05T04:51:49.147Z,0.14
2023-04-05T04:52:52.051Z,0.00
2023-04-05T04:53:55.031Z,0.00
2023-04-05T04:54:58.110Z,0.00
2023-04-05T04:56:01.078Z,0.00
2023-04-05T04:57:04.172Z,0.43
2023-04-05T04:58:07.138Z,1.00
2023-04-05T04:59:10.272Z,0.00
2023-04-05T05:00:13.203Z,0.00
2023-04-05T05:01:16.308Z,0.00
2023-04-05T05:02:19.455Z,0.00
2023-04-05T05:03:22.526Z,0.43
2023-04-05T05:04:26.995Z,0.00
2023-04-05T05:05:30.146Z,0.00
2023-04-05T05:06:33.635Z,0.00
2023-04-05T05:07:36.808Z,0.00
2023-04-05T05:08:39.787Z,0.00
2023-04-05T05:09:42.970Z,0.00
2023-04-05T05:10:47.874Z,0.00
2023-04-05T05:11:51.274Z,0.00
2023-04-05T05:12:54.661Z,0.00
2023-04-05T05:13:57.977Z,0.00
2023-04-05T05:15:01.229Z,0.00
2023-04-05T05:16:04.285Z,0.00
2023-04-05T05:17:07.484Z,0.00
2023-04-05T05:18:10.860Z,0.00
2023-04-05T05:19:15.216Z,0.00
2023-04-05T05:20:18.476Z,0.50
2023-04-05T05:21:22.881Z,0.57
2023-04-05T05:22:26.072Z,0.00
2023-04-05T05:23:32.491Z,0.00
2023-04-05T05:24:35.496Z,0.00
2023-04-05T05:25:38.939Z,0.00
2023-04-05T05:26:42.280Z,0.00
2023-04-05T05:27:45.557Z,0.00
2023-04-05T05:28:48.733Z,0.00
2023-04-05T05:29:51.935Z,0.00
2023-04-05T05:30:55.223Z,0.00
2023-04-05T05:31:58.391Z,0.00
2023-04-05T05:33:01.883Z,0.00
2023-04-05T05:34:06.517Z,0.00
2023-04-05T05:35:09.679Z,0.00
2023-04-05T05:36:12.859Z,0.00
2023-04-05T05:37:19.298Z,0.00
2023-04-05T05:38:22.618Z,0.00
2023-04-05T05:39:25.980Z,0.00
2023-04-05T05:40:29.286Z,0.00
2023-04-05T05:41:40.433Z,0.00
2023-04-05T05:42:43.723Z,0.00
2023-04-05T05:43:47.112Z,0.00
2023-04-05T05:44:50.280Z,0.00
2023-04-05T05:45:53.642Z,0.00
2023-04-05T05:46:56.950Z,0.00
2023-04-05T05:48:00.232Z,0.00
2023-04-05T05:49:03.458Z,0.00
2023-04-05T05:50:06.717Z,0.29
2023-04-05T05:51:11.513Z,0.00
2023-04-05T05:52:14.312Z,0.00
2023-04-05T05:53:17.486Z,0.00
2023-04-05T05:54:21.280Z,0.00
2023-04-05T05:55:24.562Z,0.00
2023-04-05T05:56:27.857Z,0.00
2023-04-05T05:57:31.350Z,0.00
2023-04-05T05:58:34.622Z,0.00
2023-04-05T05:59:37.988Z,0.00
2023-04-05T06:00:41.646Z,0.00
2023-04-05T06:01:44.888Z,0.00
2023-04-05T06:02:48.315Z,0.00
2023-04-05T06:03:51.825Z,0.00
2023-04-05T06:04:55.499Z,0.43
2023-04-05T06:05:58.853Z,0.57
2023-04-05T06:07:01.918Z,0.00
2023-04-05T06:08:05.200Z,0.00
2023-04-05T06:09:08.390Z,0.57
2023-04-05T06:10:17.649Z,0.00
2023-04-05T06:11:20.891Z,0.00
2023-04-05T06:12:28.816Z,0.14
2023-04-05T06:13:31.167Z,0.00
2023-04-05T06:14:34.121Z,0.29
2023-04-05T06:15:37.204Z,0.14
2023-04-05T06:16:40.417Z,0.17
2023-04-05T06:17:43.405Z,0.00
2023-04-05T06:18:46.420Z,0.00
2023-04-05T06:19:50.784Z,0.00
2023-04-05T06:20:53.637Z,0.13
2023-04-05T06:21:56.925Z,0.67
2023-04-05T06:23:00.158Z,0.00
2023-04-05T06:24:03.385Z,0.00
2023-04-05T06:25:07.390Z,0.00
2023-04-05T06:26:10.360Z,0.00
2023-04-05T06:27:13.436Z,0.00
2023-04-05T06:28:16.618Z,0.14
2023-04-05T06:29:19.701Z,0.00
2023-04-05T06:30:22.885Z,0.00
2023-04-05T06:31:26.081Z,0.00
2023-04-05T06:32:29.272Z,0.00
2023-04-05T06:33:32.326Z,0.00
2023-04-05T06:34:35.394Z,0.00
2023-04-05T06:35:38.516Z,0.00
2023-04-05T06:36:41.559Z,0.00
2023-04-05T06:37:44.741Z,0.14
2023-04-05T06:38:47.824Z,0.00
2023-04-05T06:39:50.816Z,0.00
2023-04-05T06:40:53.870Z,0.00
2023-04-05T06:41:56.953Z,0.00
2023-04-05T06:43:00.038Z,0.00
2023-04-05T06:44:03.230Z,0.00
2023-04-05T06:45:06.418Z,0.00
2023-04-05T06:46:09.620Z,0.00
2023-04-05T06:47:12.666Z,0.00
2023-04-05T06:48:15.675Z,0.00
2023-04-05T06:49:18.597Z,0.43
2023-04-05T06:50:21.718Z,1.00
2023-04-05T06:51:24.712Z,1.00
2023-04-05T06:52:27.733Z,0.57
2023-04-05T06:53:30.752Z,1.00
2023-04-05T06:54:33.708Z,1.33
2023-04-05T06:55:36.879Z,1.50
2023-04-05T06:56:40.077Z,0.83
2023-04-05T06:57:43.364Z,1.00
2023-04-05T06:58:46.496Z,0.67
2023-04-05T06:59:49.623Z,0.00
2023-04-05T07:00:54.363Z,0.00
2023-04-05T07:01:57.309Z,0.00
2023-04-05T07:03:00.497Z,0.00
2023-04-05T07:04:03.628Z,0.00
2023-04-05T07:05:06.554Z,0.00
2023-04-05T07:06:16.264Z,0.00
2023-04-05T07:07:19.362Z,0.50
2023-04-05T07:08:22.960Z,0.57
2023-04-05T07:09:26.649Z,0.29
2023-04-05T07:10:30.358Z,0.50
2023-04-05T07:11:33.848Z,0.86
2023-04-05T07:12:37.016Z,1.00
2023-04-05T07:13:40.091Z,1.00
2023-04-05T07:14:43.172Z,0.67
2023-04-05T07:15:46.400Z,1.00
2023-04-05T07:16:49.888Z,1.00
2023-04-05T07:17:53.615Z,1.00
2023-04-05T07:18:56.631Z,0.57
2023-04-05T07:20:00.139Z,0.86
2023-04-05T07:21:05.927Z,0.43
2023-04-05T07:22:10.270Z,0.50
2023-04-05T07:23:14.965Z,0.00
2023-04-05T07:24:18.616Z,0.50
2023-04-05T07:25:21.553Z,0.50
2023-04-05T07:26:25.918Z,0.00
2023-04-05T07:27:32.080Z,0.00
2023-04-05T07:28:34.672Z,0.00
2023-04-05T07:29:37.759Z,0.00
2023-04-05T07:30:41.162Z,0.33
2023-04-05T07:31:44.801Z,1.00
2023-04-05T07:32:49.447Z,0.57
2023-04-05T07:33:52.026Z,0.13
2023-04-05T07:34:55.159Z,1.00
2023-04-05T07:35:58.171Z,0.57
2023-04-05T07:37:02.373Z,0.00
2023-04-05T07:38:05.676Z,0.00
2023-04-05T07:39:08.753Z,0.00
2023-04-05T07:40:11.724Z,0.00
2023-04-05T07:41:14.816Z,0.00
2023-04-05T07:42:18.092Z,0.00
2023-04-05T07:43:22.627Z,0.00
2023-04-05T07:44:25.806Z,0.00
2023-04-05T07:45:30.380Z,0.00
2023-04-05T07:46:33.086Z,0.00
2023-04-05T07:47:36.133Z,0.00
2023-04-05T07:48:39.034Z,0.00
2023-04-05T07:49:46.932Z,0.00
2023-04-05T07:50:50.002Z,0.00
2023-04-05T07:51:53.586Z,0.43
2023-04-05T07:52:56.968Z,0.43
2023-04-05T07:54:01.842Z,0.00
2023-04-05T07:55:06.998Z,0.00
2023-04-05T07:56:10.316Z,0.50
2023-04-05T07:57:13.584Z,0.50
2023-04-05T07:58:16.868Z,0.57
2023-04-05T07:59:20.309Z,0.00
2023-04-05T08:00:23.837Z,0.00
2023-04-05T08:01:27.150Z,0.00
2023-04-05T08:02:30.535Z,0.00
2023-04-05T08:03:34.507Z,0.43
2023-04-05T08:04:37.774Z,0.57
2023-04-05T08:05:41.082Z,0.00
2023-04-05T08:06:44.942Z,0.00
2023-04-05T08:07:48.310Z,0.00
2023-04-05T08:08:51.567Z,0.00
2023-04-05T08:09:54.846Z,0.00
2023-04-05T08:10:58.097Z,0.00
2023-04-05T08:12:02.522Z,0.00
2023-04-05T08:13:07.285Z,0.25
2023-04-05T08:14:11.049Z,0.50
2023-04-05T08:15:14.246Z,0.29
2023-04-05T08:16:17.627Z,0.00
2023-04-05T08:17:21.136Z,0.43
2023-04-05T08:18:25.028Z,0.50
2023-04-05T08:19:28.415Z,0.43
2023-04-05T08:20:31.717Z,1.00
2023-04-05T08:21:35.166Z,0.57
2023-04-05T08:22:38.971Z,0.00
2023-04-05T08:23:42.353Z,0.00
2023-04-05T08:24:45.610Z,0.00
2023-04-05T08:25:49.393Z,0.00
2023-04-05T08:26:52.989Z,0.43
2023-04-05T08:27:56.921Z,1.00
2023-04-05T08:29:00.208Z,0.57
2023-04-05T08:30:03.484Z,0.00
2023-04-05T08:31:06.799Z,0.43
2023-04-05T08:32:10.071Z,1.00
2023-04-05T08:33:13.393Z,0.57
2023-04-05T08:34:16.738Z,0.43
2023-04-05T08:35:21.054Z,0.57
2023-04-05T08:36:38.664Z,1.00
2023-04-05T08:37:42.252Z,0.75
2023-04-05T08:38:45.652Z,0.57
2023-04-05T08:39:49.042Z,0.43
2023-04-05T08:40:52.423Z,1.00
2023-04-05T08:41:55.812Z,0.86
2023-04-05T08:42:59.076Z,0.43
2023-04-05T08:44:07.812Z,1.00
2023-04-05T08:45:16.423Z,0.50
2023-04-05T08:46:19.802Z,1.00
2023-04-05T08:47:23.066Z,1.43
2023-04-05T08:48:26.361Z,2.00
2023-04-05T08:49:29.639Z,2.43
2023-04-05T08:50:32.945Z,2.57
2023-04-05T08:51:37.453Z,2.86
2023-04-05T08:52:41.817Z,3.12
2023-04-05T08:53:46.483Z,2.00
2023-04-05T08:54:51.069Z,1.50
2023-04-05T08:55:55.658Z,1.00
2023-04-05T08:57:00.148Z,1.00
2023-04-05T08:58:03.503Z,1.62
2023-04-05T08:59:07.249Z,2.43
2023-04-05T09:00:11.793Z,3.00
2023-04-05T09:01:15.757Z,3.00
2023-04-05T09:02:19.348Z,3.00
2023-04-05T09:03:23.327Z,3.00
2023-04-05T09:04:26.871Z,1.71
2023-04-05T09:05:30.595Z,1.43
2023-04-05T09:06:33.762Z,1.57
2023-04-05T09:07:37.072Z,1.00
2023-04-05T09:08:40.850Z,1.00
2023-04-05T09:09:44.149Z,1.50
2023-04-05T09:10:47.319Z,2.00
2023-04-05T09:11:52.633Z,1.57
2023-04-05T09:12:56.232Z,1.00
2023-04-05T09:14:01.544Z,1.00
2023-04-05T09:15:05.091Z,1.00
2023-04-05T09:16:09.481Z,1.00
2023-04-05T09:17:12.918Z,2.00
2023-04-05T09:18:26.300Z,1.57
2023-04-05T09:19:21.675Z,1.00
2023-04-05T09:20:30.393Z,1.50
2023-04-05T09:21:34.902Z,1.50
2023-04-05T09:22:40.629Z,1.00
2023-04-05T09:23:44.334Z,3.00
2023-04-05T09:24:48.021Z,4.37
2023-04-05T09:25:53.386Z,2.43
2023-04-05T09:26:56.617Z,2.00
2023-04-05T09:28:00.130Z,1.43
2023-04-05T09:29:03.335Z,1.57
2023-04-05T09:30:07.932Z,1.43
2023-04-05T09:31:11.743Z,2.50
2023-04-05T09:32:15.285Z,1.86
2023-04-05T09:33:18.654Z,1.43
2023-04-05T09:34:22.393Z,3.29
2023-04-05T09:35:26.286Z,4.57
2023-04-05T09:36:29.979Z,3.50
2023-04-05T09:37:34.650Z,3.86
2023-04-05T09:38:42.709Z,3.50
2023-04-05T09:39:51.019Z,1.75
2023-04-05T09:40:54.455Z,1.50
2023-04-05T09:41:57.773Z,2.43
2023-04-05T09:43:01.566Z,2.57
2023-04-05T09:44:06.521Z,2.00
2023-04-05T09:45:12.565Z,1.00
2023-04-05T09:46:15.749Z,1.00
2023-04-05T09:47:18.829Z,1.33
2023-04-05T09:48:23.321Z,1.75
2023-04-05T09:49:26.910Z,1.50
2023-04-05T09:50:35.616Z,1.00
2023-04-05T09:51:40.433Z,1.00
2023-04-05T09:52:43.450Z,1.50
2023-04-05T09:53:47.038Z,1.57
2023-04-05T09:54:50.311Z,1.43
2023-04-05T09:55:55.210Z,2.00
2023-04-05T09:57:01.960Z,2.00
2023-04-05T09:58:06.400Z,1.75
2023-04-05T09:59:10.975Z,1.50
2023-04-05T10:00:14.737Z,1.00
2023-04-05T10:01:18.482Z,1.43
2023-04-05T10:02:22.215Z,1.57
2023-04-05T10:03:25.698Z,1.43
2023-04-05T10:04:29.280Z,1.57
2023-04-05T10:05:32.371Z,1.00
2023-04-05T10:06:36.824Z,1.00
2023-04-05T10:07:40.766Z,1.00
2023-04-05T10:08:45.883Z,1.00
2023-04-05T10:09:51.448Z,1.50
2023-04-05T10:10:54.878Z,2.00
2023-04-05T10:11:58.109Z,1.57
2023-04-05T10:13:01.486Z,1.29
2023-04-05T10:14:04.918Z,1.71
2023-04-05T10:15:08.056Z,1.57
2023-04-05T10:16:11.221Z,1.00
2023-04-05T10:17:14.322Z,0.86
2023-04-05T10:18:17.764Z,1.00
2023-04-05T10:19:22.555Z,2.00
2023-04-05T10:20:25.803Z,2.00
2023-04-05T10:21:29.084Z,2.00
2023-04-05T10:22:32.204Z,1.14
2023-04-05T10:23:35.173Z,0.33
2023-04-05T10:24:38.337Z,1.00
2023-04-05T10:25:41.910Z,1.00
2023-04-05T10:26:46.093Z,1.57
2023-04-05T10:27:49.776Z,1.50
2023-04-05T10:28:57.257Z,1.57
2023-04-05T10:30:01.734Z,1.50
2023-04-05T10:31:07.683Z,2.00
2023-04-05T10:32:10.906Z,1.50
2023-04-05T10:33:14.259Z,1.00
2023-04-05T10:34:19.571Z,1.00
2023-04-05T10:35:22.709Z,1.50
2023-04-05T10:36:25.867Z,2.00
2023-04-05T10:37:30.826Z,2.00
2023-04-05T10:38:36.401Z,2.50
2023-04-05T10:39:39.501Z,1.37
2023-04-05T10:40:42.901Z,1.00
2023-04-05T10:41:46.150Z,1.00
2023-04-05T10:42:49.322Z,1.50
2023-04-05T10:43:52.427Z,1.67
2023-04-05T10:44:57.209Z,1.43
2023-04-05T10:46:00.366Z,2.00
2023-04-05T10:47:03.491Z,1.00
2023-04-05T10:48:06.966Z,1.00
2023-04-05T10:49:10.062Z,1.57
2023-04-05T10:50:13.187Z,1.43
2023-04-05T10:51:21.661Z,2.29
2023-04-05T10:52:25.061Z,2.00
2023-04-05T10:53:28.487Z,1.71
2023-04-05T10:54:31.537Z,2.00
2023-04-05T10:55:34.661Z,1.43
2023-04-05T10:56:39.003Z,1.57
2023-04-05T10:57:42.133Z,1.50
2023-04-05T10:58:45.421Z,2.00
2023-04-05T10:59:50.569Z,2.86
2023-04-05T11:00:54.068Z,2.00
2023-04-05T11:01:57.810Z,2.12
2023-04-05T11:03:01.571Z,2.71
2023-04-05T11:04:05.311Z,3.62
2023-04-05T11:05:09.338Z,4.14
2023-04-05T11:06:12.948Z,4.87
2023-04-05T11:07:24.520Z,4.43
2023-04-05T11:08:27.305Z,4.50
2023-04-05T11:09:30.552Z,4.43
2023-04-05T11:10:35.852Z,5.43
2023-04-05T11:11:39.394Z,5.00
2023-04-05T11:12:42.386Z,5.43
2023-04-05T11:13:48.357Z,5.67
2023-04-05T11:14:53.453Z,5.50
2023-04-05T11:15:56.526Z,5.00
2023-04-05T11:17:00.194Z,4.43
2023-04-05T11:18:03.718Z,5.00
2023-04-05T11:19:07.259Z,5.00
2023-04-05T11:20:11.372Z,4.57
2023-04-05T11:21:16.044Z,4.00
2023-04-05T11:22:19.706Z,4.50
2023-04-05T11:23:22.808Z,4.50
2023-04-05T11:24:26.036Z,4.00
2023-04-05T11:25:29.252Z,3.57
2023-04-05T11:26:35.446Z,2.67
2023-04-05T11:27:38.965Z,3.00
2023-04-05T11:28:41.991Z,4.43
2023-04-05T11:29:45.034Z,4.14
2023-04-05T11:30:48.625Z,3.43
2023-04-05T11:31:53.431Z,3.57
2023-04-05T11:32:56.634Z,3.00
2023-04-05T11:34:00.125Z,3.71
2023-04-05T11:35:03.150Z,3.57
2023-04-05T11:36:06.655Z,2.57
2023-04-05T11:37:09.990Z,2.00
2023-04-05T11:38:13.293Z,2.86
2023-04-05T11:39:21.637Z,3.14
2023-04-05T11:40:25.916Z,4.00
2023-04-05T11:41:28.995Z,4.67
2023-04-05T11:42:32.227Z,5.00
2023-04-05T11:43:35.545Z,6.57
2023-04-05T11:44:39.015Z,6.29
2023-04-05T11:45:42.128Z,6.14
2023-04-05T11:46:45.128Z,4.67
2023-04-05T11:47:48.635Z,3.86
2023-04-05T11:49:02.118Z,3.00
2023-04-05T11:50:05.476Z,2.00
2023-04-05T11:51:08.978Z,1.00
2023-04-05T11:52:12.243Z,1.62
2023-04-05T11:53:15.553Z,2.43
2023-04-05T11:54:18.916Z,1.71
2023-04-05T11:55:22.198Z,1.57
2023-04-05T11:56:25.436Z,1.43
2023-04-05T11:57:28.672Z,2.00
2023-04-05T11:58:31.852Z,2.43
2023-04-05T11:59:35.622Z,2.57
2023-04-05T12:00:39.116Z,2.29
2023-04-05T12:01:42.823Z,1.57
2023-04-05T12:02:46.841Z,1.43
2023-04-05T12:03:50.386Z,2.00
2023-04-05T12:04:54.003Z,1.50
2023-04-05T12:05:57.012Z,1.00
2023-04-05T12:07:00.784Z,1.43
2023-04-05T12:08:04.189Z,2.43
2023-04-05T12:09:07.756Z,2.14
2023-04-05T12:10:10.980Z,1.87
2023-04-05T12:11:14.177Z,1.57
2023-04-05T12:12:17.726Z,1.17
2023-04-05T12:13:20.925Z,1.00
2023-04-05T12:14:24.425Z,1.57
2023-04-05T12:15:31.392Z,1.57
2023-04-05T12:16:34.887Z,2.00
2023-04-05T12:17:38.696Z,1.87
2023-04-05T12:18:41.829Z,2.00
2023-04-05T12:19:45.429Z,2.00
2023-04-05T12:20:49.009Z,1.37
2023-04-05T12:21:52.211Z,1.43
2023-04-05T12:22:55.515Z,2.00
2023-04-05T12:23:58.759Z,2.00
2023-04-05T12:25:02.446Z,1.57
2023-04-05T12:26:07.036Z,1.00
2023-04-05T12:27:10.270Z,2.14
2023-04-05T12:28:13.563Z,3.00
2023-04-05T12:29:16.747Z,3.00
2023-04-05T12:30:20.085Z,2.86
2023-04-05T12:31:23.427Z,2.71
2023-04-05T12:32:28.586Z,2.86
2023-04-05T12:33:31.715Z,2.00
2023-04-05T12:34:35.314Z,2.43
2023-04-05T12:35:38.651Z,2.43
2023-04-05T12:36:42.073Z,2.00
2023-04-05T12:37:45.367Z,2.00
2023-04-05T12:38:49.840Z,2.43
2023-04-05T12:39:53.370Z,3.00
2023-04-05T12:40:56.716Z,2.67
2023-04-05T12:42:00.024Z,3.00
2023-04-05T12:43:06.743Z,3.14
2023-04-05T12:44:13.616Z,2.37
2023-04-05T12:45:16.546Z,2.25
2023-04-05T12:46:20.042Z,2.00
2023-04-05T12:47:24.059Z,2.43
2023-04-05T12:48:27.613Z,3.00
2023-04-05T12:49:31.207Z,3.00
2023-04-05T12:50:34.792Z,3.00
2023-04-05T12:51:38.386Z,2.12
2023-04-05T12:52:41.883Z,2.00
2023-04-05T12:53:45.362Z,2.00
2023-04-05T12:54:48.761Z,2.00
2023-04-05T12:55:51.940Z,2.00
2023-04-05T12:57:00.947Z,2.14
2023-04-05T12:58:04.152Z,2.50
2023-04-05T12:59:07.483Z,2.00
2023-04-05T13:00:10.799Z,2.00
2023-04-05T13:01:14.225Z,2.00
2023-04-05T13:02:17.897Z,2.00
2023-04-05T13:03:21.575Z,2.00
2023-04-05T13:04:25.278Z,2.50
2023-04-05T13:05:28.655Z,2.86
2023-04-05T13:06:32.170Z,2.43
2023-04-05T13:07:35.634Z,2.43
2023-04-05T13:08:39.443Z,3.00
2023-04-05T13:09:42.924Z,2.57
2023-04-05T13:10:46.565Z,2.00
2023-04-05T13:11:50.111Z,2.86
2023-04-05T13:12:53.713Z,3.57
2023-04-05T13:13:57.504Z,2.57
2023-04-05T13:15:01.188Z,2.50
2023-04-05T13:16:04.707Z,2.86
2023-04-05T13:17:08.281Z,3.00
2023-04-05T13:18:12.866Z,2.50
2023-04-05T13:19:16.467Z,2.43
2023-04-05T13:20:19.973Z,3.00
2023-04-05T13:21:25.120Z,3.00
2023-04-05T13:22:28.590Z,2.87
2023-04-05T13:23:32.083Z,4.14
2023-04-05T13:24:35.379Z,5.00
2023-04-05T13:25:38.880Z,4.57
2023-04-05T13:26:42.438Z,4.00
2023-04-05T13:27:46.040Z,4.43
2023-04-05T13:28:49.420Z,4.57
2023-04-05T13:29:52.908Z,5.29
2023-04-05T13:30:56.457Z,5.14
2023-04-05T13:31:59.812Z,4.86
2023-04-05T13:33:03.106Z,5.00
2023-04-05T13:34:09.007Z,5.00
2023-04-05T13:35:12.407Z,4.75
2023-04-05T13:36:15.679Z,4.71
2023-04-05T13:37:18.812Z,4.57
2023-04-05T13:38:22.452Z,4.00
2023-04-05T13:39:26.112Z,3.14
2023-04-05T13:40:30.043Z,3.14
2023-04-05T13:41:33.639Z,3.29
2023-04-05T13:42:40.524Z,4.14
2023-04-05T13:43:43.941Z,2.50
2023-04-05T13:44:47.177Z,2.43
2023-04-05T13:45:50.366Z,3.00
2023-04-05T13:46:53.635Z,3.00
2023-04-05T13:47:56.957Z,3.00
2023-04-05T13:49:00.212Z,3.00
2023-04-05T13:50:03.492Z,3.00
2023-04-05T13:51:06.775Z,2.57
2023-04-05T13:52:09.957Z,2.00
2023-04-05T13:53:13.250Z,2.00
2023-04-05T13:54:16.429Z,2.00
2023-04-05T13:55:19.714Z,1.57
2023-04-05T13:56:23.351Z,1.86
2023-04-05T13:57:26.683Z,2.57
2023-04-05T13:58:29.894Z,2.43
2023-04-05T13:59:33.257Z,2.67
2023-04-05T14:00:36.535Z,2.00
2023-04-05T14:01:39.946Z,2.86
2023-04-05T14:02:43.153Z,2.57
2023-04-05T14:03:46.511Z,2.43
2023-04-05T14:04:49.776Z,2.29
2023-04-05T14:05:55.243Z,1.43
2023-04-05T14:06:57.270Z,2.00
2023-04-05T14:08:00.459Z,2.00